createdAt,value
2018-03-31T00:01:01.581Z,95.31
2018-03-31T00:03:28.464Z,94.97
2018-03-31T00:05:55.301Z,94.97
2018-03-31T00:08:22.147Z,94.95
2018-03-31T00:10:48.997Z,94.92
2018-03-31T00:13:15.848Z,94.92
2018-03-31T00:15:42.696Z,95.13
2018-03-31T00:18:09.556Z,95.35
2018-03-31T00:20:36.406Z,95.19
2018-03-31T00:23:03.256Z,95.32
2018-03-31T00:25:30.140Z,95.37
2018-03-31T00:27:56.980Z,95.35
2018-03-31T00:30:23.825Z,95.21
2018-03-31T00:32:50.669Z,95.22
2018-03-31T00:35:17.521Z,95.28
2018-03-31T00:37:44.362Z,95.43
2018-03-31T00:40:11.204Z,95.59
2018-03-31T00:42:38.037Z,95.55
2018-03-31T00:45:04.891Z,95.47
2018-03-31T00:47:31.739Z,95.26
2018-03-31T00:49:58.624Z,95.05
2018-03-31T00:52:25.465Z,95.11
2018-03-31T00:54:52.368Z,94.96
2018-03-31T00:57:19.205Z,95.05
2018-03-31T00:59:46.101Z,95.53
2018-03-31T01:02:13.173Z,95.47
2018-03-31T01:04:40.038Z,95.28
2018-03-31T01:07:06.882Z,95.36
2018-03-31T01:09:33.720Z,95.17
2018-03-31T01:12:00.617Z,95.04
2018-03-31T01:14:27.484Z,95.21
2018-03-31T01:16:54.320Z,95.32
2018-03-31T01:19:21.202Z,95.40
2018-03-31T01:21:48.059Z,95.55
2018-03-31T01:24:14.911Z,95.97
2018-03-31T01:26:41.782Z,96.19
2018-03-31T01:29:08.618Z,96.35
2018-03-31T01:31:35.451Z,96.37
2018-03-31T01:34:02.337Z,96.24
2018-03-31T01:36:29.188Z,96.15
2018-03-31T01:38:56.032Z,96.01
2018-03-31T01:41:22.914Z,95.97
2018-03-31T01:43:49.780Z,96.01
2018-03-31T01:46:16.608Z,95.87
2018-03-31T01:48:43.467Z,95.87
2018-03-31T01:51:10.331Z,95.75
2018-03-31T01:53:37.172Z,96.23
2018-03-31T01:56:04.029Z,96.67
2018-03-31T01:58:30.902Z,96.62
2018-03-31T02:00:57.769Z,96.86
2018-03-31T02:03:24.604Z,96.78
2018-03-31T02:05:51.449Z,96.50
2018-03-31T02:08:18.301Z,96.15
2018-03-31T02:10:45.152Z,96.13
2018-03-31T02:13:12.004Z,96.23
2018-03-31T02:15:38.861Z,96.42
2018-03-31T02:18:05.712Z,96.45
2018-03-31T02:20:32.548Z,96.26
2018-03-31T02:22:59.447Z,96.24
2018-03-31T02:25:26.284Z,96.37
2018-03-31T02:27:53.124Z,96.28
2018-03-31T02:30:19.982Z,96.25
2018-03-31T02:32:46.820Z,96.27
2018-03-31T02:35:13.661Z,96.31
2018-03-31T02:37:40.522Z,97.21
2018-03-31T02:40:07.356Z,97.47
2018-03-31T02:42:34.217Z,97.53
2018-03-31T02:45:01.052Z,97.33
2018-03-31T02:47:27.891Z,97.23
2018-03-31T02:49:54.749Z,97.26
2018-03-31T02:52:21.598Z,97.15
2018-03-31T02:54:48.465Z,97.41
2018-03-31T02:57:15.313Z,97.78
2018-03-31T02:59:42.183Z,98.13
2018-03-31T03:02:09.028Z,98.10
2018-03-31T03:04:35.888Z,97.85
2018-03-31T03:07:02.751Z,97.69
2018-03-31T03:09:29.585Z,98.36
2018-03-31T03:11:56.429Z,99.01
2018-03-31T03:14:23.284Z,99.50
2018-03-31T03:16:50.129Z,98.88
2018-03-31T03:19:17.252Z,98.65
2018-03-31T03:21:44.104Z,98.47
2018-03-31T03:24:11.020Z,98.61
2018-03-31T03:26:37.859Z,99.09
2018-03-31T03:29:04.736Z,98.65
2018-03-31T03:31:31.850Z,98.43
2018-03-31T03:33:58.688Z,98.19
2018-03-31T03:36:25.536Z,98.02
2018-03-31T03:38:52.381Z,97.90
2018-03-31T03:41:19.220Z,97.73
2018-03-31T03:43:46.081Z,97.70
2018-03-31T03:46:12.915Z,97.74
2018-03-31T03:48:39.771Z,97.81
2018-03-31T03:51:06.654Z,98.10
2018-03-31T03:53:33.492Z,98.09
2018-03-31T03:56:00.344Z,98.15
2018-03-31T03:58:27.183Z,98.05
2018-03-31T04:00:54.045Z,97.96
2018-03-31T04:03:20.938Z,97.75
2018-03-31T04:05:47.781Z,97.51
2018-03-31T04:08:15.056Z,97.50
2018-03-31T04:10:41.934Z,97.54
2018-03-31T04:13:08.790Z,97.54
2018-03-31T04:15:35.660Z,97.63
2018-03-31T04:18:02.508Z,97.61
2018-03-31T04:20:29.684Z,97.89
2018-03-31T04:22:56.522Z,97.79
2018-03-31T04:25:23.359Z,97.77
2018-03-31T04:27:50.220Z,98.01
2018-03-31T04:30:17.063Z,97.99
2018-03-31T04:32:44.316Z,98.03
2018-03-31T04:35:11.163Z,98.22
2018-03-31T04:37:38.001Z,98.02
2018-03-31T04:40:04.860Z,98.14
2018-03-31T04:42:31.701Z,98.45
2018-03-31T04:44:58.552Z,98.45
2018-03-31T04:47:25.420Z,98.34
2018-03-31T04:49:52.280Z,98.29
2018-03-31T04:52:19.108Z,98.18
2018-03-31T04:54:45.968Z,98.29
2018-03-31T04:57:12.852Z,98.27
2018-03-31T04:59:39.697Z,98.89
2018-03-31T05:02:06.540Z,99.83
2018-03-31T05:04:33.497Z,100.00
2018-03-31T05:07:00.339Z,99.55
2018-03-31T05:09:27.467Z,99.28
2018-03-31T05:11:54.291Z,99.12
2018-03-31T05:14:21.133Z,98.65
2018-03-31T05:16:47.980Z,98.75
2018-03-31T05:19:14.825Z,98.92
2018-03-31T05:21:41.915Z,98.72
2018-03-31T05:24:08.748Z,98.64
2018-03-31T05:26:36.296Z,98.55
2018-03-31T05:29:03.145Z,98.56
2018-03-31T05:31:30.952Z,98.64
2018-03-31T05:33:57.864Z,98.51
2018-03-31T05:36:28.333Z,98.47
2018-03-31T05:38:55.556Z,98.45
2018-03-31T05:41:22.392Z,98.42
2018-03-31T05:43:49.240Z,98.36
2018-03-31T05:46:16.341Z,98.19
2018-03-31T05:48:43.210Z,98.33
2018-03-31T05:51:10.035Z,98.45
2018-03-31T05:53:36.893Z,98.19
2018-03-31T05:56:03.750Z,98.06
2018-03-31T05:58:30.596Z,98.45
2018-03-31T06:01:03.216Z,98.35
2018-03-31T06:03:30.186Z,98.23
2018-03-31T06:05:56.992Z,98.17
2018-03-31T06:08:23.864Z,98.20
2018-03-31T06:10:50.724Z,98.14
2018-03-31T06:13:17.560Z,98.05
2018-03-31T06:15:44.444Z,97.96
2018-03-31T06:18:11.304Z,97.94
2018-03-31T06:20:38.167Z,98.29
2018-03-31T06:23:05.000Z,98.25
2018-03-31T06:25:31.852Z,97.99
2018-03-31T06:27:58.712Z,97.98
2018-03-31T06:30:25.570Z,97.61
2018-03-31T06:32:52.400Z,97.05
2018-03-31T06:35:19.244Z,96.96
2018-03-31T06:37:46.079Z,97.26
2018-03-31T06:40:12.925Z,97.44
2018-03-31T06:42:39.780Z,97.57
2018-03-31T06:45:06.624Z,97.48
2018-03-31T06:47:33.486Z,97.36
2018-03-31T06:50:00.305Z,97.29
2018-03-31T06:52:27.160Z,96.92
2018-03-31T06:54:54.000Z,96.85
2018-03-31T06:57:20.836Z,96.57
2018-03-31T06:59:48.636Z,96.69
2018-03-31T07:02:15.481Z,96.81
2018-03-31T07:04:42.366Z,97.02
2018-03-31T07:07:09.201Z,96.86
2018-03-31T07:09:36.060Z,96.13
2018-03-31T07:12:02.904Z,95.76
2018-03-31T07:14:29.752Z,94.53
2018-03-31T07:16:56.605Z,94.07
2018-03-31T07:19:23.496Z,94.14
2018-03-31T07:21:50.349Z,94.04
2018-03-31T07:24:17.222Z,93.88
2018-03-31T07:26:44.136Z,93.94
2018-03-31T07:29:10.980Z,93.05
2018-03-31T07:31:37.845Z,92.48
2018-03-31T07:34:04.706Z,92.37
2018-03-31T07:36:31.565Z,92.17
2018-03-31T07:38:58.392Z,91.36
2018-03-31T07:41:25.257Z,89.80
2018-03-31T07:43:52.100Z,89.83
2018-03-31T07:46:18.968Z,89.28
2018-03-31T07:48:45.832Z,90.08
2018-03-31T07:51:12.680Z,88.20
2018-03-31T07:53:39.536Z,88.92
2018-03-31T07:56:06.383Z,87.06
2018-03-31T07:58:33.215Z,86.67
2018-03-31T08:01:00.082Z,86.95
2018-03-31T08:03:26.937Z,87.53
2018-03-31T08:05:54.774Z,88.18
2018-03-31T08:08:22.584Z,86.87
2018-03-31T08:10:51.528Z,86.67
2018-03-31T08:13:18.371Z,85.85
2018-03-31T08:15:45.219Z,85.65
2018-03-31T08:18:12.093Z,84.23
2018-03-31T08:20:38.930Z,85.04
2018-03-31T08:23:05.798Z,85.71
2018-03-31T08:25:32.628Z,82.32
2018-03-31T08:27:59.468Z,82.73
2018-03-31T08:30:26.334Z,83.69
2018-03-31T08:32:53.152Z,84.67
2018-03-31T08:35:19.992Z,82.95
2018-03-31T08:37:46.852Z,82.63
2018-03-31T08:40:13.713Z,81.29
2018-03-31T08:42:40.921Z,82.57
2018-03-31T08:45:07.758Z,82.31
2018-03-31T08:47:34.598Z,80.92
2018-03-31T08:50:01.462Z,80.62
2018-03-31T08:52:28.300Z,80.56
2018-03-31T08:54:55.180Z,81.31
2018-03-31T08:57:22.021Z,78.72
2018-03-31T08:59:48.892Z,79.14
2018-03-31T09:02:15.740Z,74.95
2018-03-31T09:04:42.580Z,75.66
2018-03-31T09:07:09.748Z,76.00
2018-03-31T09:09:36.602Z,75.76
2018-03-31T09:12:03.445Z,74.51
2018-03-31T09:14:30.285Z,73.00
2018-03-31T09:16:57.129Z,71.73
2018-03-31T09:19:23.984Z,70.34
2018-03-31T09:21:50.895Z,69.59
2018-03-31T09:24:17.752Z,65.75
2018-03-31T09:26:44.644Z,65.71
2018-03-31T09:29:11.492Z,66.38
2018-03-31T09:31:38.447Z,66.61
2018-03-31T09:34:05.326Z,66.07
2018-03-31T09:36:32.158Z,63.63
2018-03-31T09:38:59.032Z,62.20
2018-03-31T09:41:25.879Z,61.81
2018-03-31T09:43:52.732Z,57.67
2018-03-31T09:46:19.573Z,58.38
2018-03-31T09:48:46.436Z,57.50
2018-03-31T09:51:13.289Z,57.26
2018-03-31T09:53:40.149Z,56.74
2018-03-31T09:56:07.024Z,55.17
2018-03-31T09:58:33.856Z,54.14
2018-03-31T10:01:03.481Z,52.08
2018-03-31T10:03:30.361Z,51.86
2018-03-31T10:05:57.207Z,51.64
2018-03-31T10:08:24.925Z,51.06
2018-03-31T10:10:51.805Z,47.17
2018-03-31T10:13:18.661Z,49.46
2018-03-31T10:15:45.524Z,44.79
2018-03-31T10:18:12.359Z,48.96
2018-03-31T10:20:39.480Z,47.10
2018-03-31T10:23:06.331Z,40.73
2018-03-31T10:25:33.165Z,43.53
2018-03-31T10:28:00.421Z,43.17
2018-03-31T10:30:27.268Z,43.70
2018-03-31T10:32:54.143Z,43.56
2018-03-31T10:35:22.898Z,42.60
2018-03-31T10:37:49.678Z,43.36
2018-03-31T10:40:16.545Z,43.30
2018-03-31T10:42:43.381Z,43.98
2018-03-31T10:45:10.821Z,46.16
2018-03-31T10:47:37.713Z,43.06
2018-03-31T10:50:05.428Z,38.34
2018-03-31T10:52:32.283Z,40.83
2018-03-31T10:54:59.133Z,39.49
2018-03-31T10:57:26.012Z,41.15
2018-03-31T10:59:52.868Z,39.07
2018-03-31T11:02:19.718Z,38.24
2018-03-31T11:04:46.597Z,39.89
2018-03-31T11:07:13.464Z,39.80
2018-03-31T11:09:40.452Z,40.04
2018-03-31T11:12:07.309Z,38.03
2018-03-31T11:14:34.156Z,37.95
2018-03-31T11:17:01.001Z,35.65
2018-03-31T11:19:27.861Z,36.78
2018-03-31T11:21:54.731Z,35.61
2018-03-31T11:24:21.645Z,37.11
2018-03-31T11:26:48.826Z,39.73
2018-03-31T11:29:15.653Z,37.16
2018-03-31T11:31:42.548Z,37.93
2018-03-31T11:34:09.400Z,40.08
2018-03-31T11:36:36.276Z,41.52
2018-03-31T11:39:03.144Z,40.39
2018-03-31T11:41:30.010Z,39.08
2018-03-31T11:43:56.980Z,37.98
2018-03-31T11:46:23.877Z,36.30
2018-03-31T11:48:50.755Z,38.66
2018-03-31T11:51:17.640Z,40.54
2018-03-31T11:53:44.508Z,40.34
2018-03-31T11:56:11.368Z,40.45
2018-03-31T11:58:38.234Z,41.52
2018-03-31T12:01:05.293Z,38.84
2018-03-31T12:03:32.165Z,40.55
2018-03-31T12:05:59.002Z,37.50
2018-03-31T12:08:25.844Z,37.19
2018-03-31T12:10:52.689Z,40.01
2018-03-31T12:13:19.529Z,39.86
2018-03-31T12:15:46.380Z,41.69
2018-03-31T12:18:13.220Z,39.96
2018-03-31T12:20:40.665Z,39.66
2018-03-31T12:23:07.513Z,38.86
2018-03-31T12:25:34.349Z,39.87
2018-03-31T12:28:01.208Z,38.57
2018-03-31T12:30:28.088Z,39.62
2018-03-31T12:32:54.942Z,40.59
2018-03-31T12:35:21.800Z,40.18
2018-03-31T12:37:48.650Z,41.71
2018-03-31T12:40:15.528Z,41.28
2018-03-31T12:42:42.372Z,38.92
2018-03-31T12:45:09.219Z,40.04
2018-03-31T12:47:36.444Z,39.89
2018-03-31T12:50:03.327Z,40.87
2018-03-31T12:52:30.208Z,41.94
2018-03-31T12:54:57.073Z,43.00
2018-03-31T12:57:23.919Z,42.67
2018-03-31T12:59:50.774Z,44.31
2018-03-31T13:02:17.623Z,41.84
2018-03-31T13:04:44.468Z,42.28
2018-03-31T13:07:11.349Z,42.69
2018-03-31T13:09:38.219Z,41.45
2018-03-31T13:12:05.083Z,41.08
2018-03-31T13:14:32.038Z,39.51
2018-03-31T13:16:58.927Z,39.14
2018-03-31T13:19:25.760Z,39.03
2018-03-31T13:21:52.577Z,38.74
2018-03-31T13:24:19.425Z,39.71
2018-03-31T13:26:46.294Z,39.29
2018-03-31T13:29:13.153Z,39.43
2018-03-31T13:31:40.003Z,38.52
2018-03-31T13:34:06.893Z,39.52
2018-03-31T13:36:33.752Z,38.41
2018-03-31T13:39:00.601Z,40.81
2018-03-31T13:41:27.462Z,38.57
2018-03-31T13:43:54.301Z,36.94
2018-03-31T13:46:21.133Z,37.81
2018-03-31T13:48:47.976Z,38.08
2018-03-31T13:51:14.812Z,41.02
2018-03-31T13:53:42.009Z,37.73
2018-03-31T13:56:08.848Z,39.49
2018-03-31T13:58:35.722Z,39.29
2018-03-31T14:01:02.611Z,38.16
2018-03-31T14:03:29.454Z,40.66
2018-03-31T14:05:56.304Z,40.36
2018-03-31T14:08:23.144Z,40.17
2018-03-31T14:10:49.988Z,40.68
2018-03-31T14:13:16.861Z,44.25
2018-03-31T14:15:43.689Z,42.23
2018-03-31T14:18:10.568Z,39.80
2018-03-31T14:20:37.444Z,44.53
2018-03-31T14:23:04.306Z,41.43
2018-03-31T14:25:32.184Z,44.04
2018-03-31T14:27:59.036Z,41.89
2018-03-31T14:30:25.881Z,43.24
2018-03-31T14:32:52.728Z,44.21
2018-03-31T14:35:19.568Z,44.58
2018-03-31T14:37:47.630Z,44.32
2018-03-31T14:40:14.446Z,45.87
2018-03-31T14:42:41.294Z,42.45
2018-03-31T14:45:08.129Z,44.02
2018-03-31T14:47:35.076Z,44.33
2018-03-31T14:50:01.929Z,42.86
2018-03-31T14:52:28.798Z,41.64
2018-03-31T14:54:55.952Z,41.17
2018-03-31T14:57:22.793Z,41.33
2018-03-31T14:59:49.650Z,40.38
2018-03-31T15:02:16.488Z,42.00
2018-03-31T15:04:43.397Z,41.65
2018-03-31T15:07:10.285Z,41.83
2018-03-31T15:09:37.160Z,41.74
2018-03-31T15:12:04.115Z,42.64
2018-03-31T15:14:30.960Z,42.68
2018-03-31T15:16:57.936Z,41.86
2018-03-31T15:19:24.772Z,43.23
2018-03-31T15:21:51.621Z,42.97
2018-03-31T15:24:18.461Z,43.40
2018-03-31T15:26:45.313Z,45.10
2018-03-31T15:29:12.184Z,42.51
2018-03-31T15:31:39.381Z,44.28
2018-03-31T15:34:07.124Z,44.95
2018-03-31T15:36:33.964Z,44.52
2018-03-31T15:39:00.821Z,41.89
2018-03-31T15:41:27.669Z,42.52
2018-03-31T15:43:55.257Z,42.66
2018-03-31T15:46:22.112Z,43.65
2018-03-31T15:48:48.972Z,41.94
2018-03-31T15:51:15.814Z,42.69
2018-03-31T15:53:42.644Z,42.67
2018-03-31T15:56:09.493Z,43.69
2018-03-31T15:58:37.323Z,42.47
2018-03-31T16:01:04.168Z,42.03
2018-03-31T16:03:32.375Z,42.59
2018-03-31T16:05:59.244Z,44.00
2018-03-31T16:08:26.085Z,44.31
2018-03-31T16:10:52.933Z,43.07
2018-03-31T16:13:19.764Z,44.67
2018-03-31T16:15:46.612Z,45.12
2018-03-31T16:18:13.443Z,43.28
2018-03-31T16:20:40.284Z,43.91
2018-03-31T16:23:07.136Z,42.57
2018-03-31T16:25:33.973Z,43.99
2018-03-31T16:28:01.265Z,43.31
2018-03-31T16:30:28.104Z,43.19
2018-03-31T16:32:55.388Z,44.24
2018-03-31T16:35:22.224Z,45.01
2018-03-31T16:37:49.077Z,45.25
2018-03-31T16:40:15.971Z,45.49
2018-03-31T16:42:42.762Z,47.27
2018-03-31T16:45:09.649Z,45.94
2018-03-31T16:47:37.169Z,45.64
2018-03-31T16:50:04.005Z,47.99
2018-03-31T16:52:30.845Z,47.79
2018-03-31T16:54:57.696Z,46.45
2018-03-31T16:57:24.573Z,47.18
2018-03-31T16:59:51.425Z,47.60
2018-03-31T17:02:18.275Z,46.86
2018-03-31T17:04:45.109Z,47.23
2018-03-31T17:07:11.956Z,46.09
2018-03-31T17:09:38.819Z,48.46
2018-03-31T17:12:05.645Z,46.54
2018-03-31T17:14:32.481Z,46.84
2018-03-31T17:16:59.392Z,47.32
2018-03-31T17:19:26.240Z,46.60
2018-03-31T17:21:53.472Z,47.50
2018-03-31T17:24:20.349Z,47.17
2018-03-31T17:26:47.201Z,47.42
2018-03-31T17:29:14.056Z,48.10
2018-03-31T17:31:40.888Z,47.79
2018-03-31T17:34:07.755Z,49.05
2018-03-31T17:36:34.591Z,49.17
2018-03-31T17:39:01.429Z,50.14
2018-03-31T17:41:28.280Z,50.48
2018-03-31T17:43:55.116Z,50.62
2018-03-31T17:46:21.964Z,50.77
2018-03-31T17:48:48.882Z,50.11
2018-03-31T17:51:15.724Z,50.87
2018-03-31T17:53:42.576Z,50.66
2018-03-31T17:56:09.446Z,51.27
2018-03-31T17:58:36.350Z,51.81
2018-03-31T18:01:03.184Z,52.66
2018-03-31T18:03:30.056Z,52.54
2018-03-31T18:05:57.689Z,52.02
2018-03-31T18:08:25.333Z,52.29
2018-03-31T18:10:53.196Z,52.88
2018-03-31T18:13:20.038Z,53.55
2018-03-31T18:15:46.885Z,54.01
2018-03-31T18:18:13.730Z,54.97
2018-03-31T18:20:40.572Z,55.15
2018-03-31T18:23:08.451Z,55.08
2018-03-31T18:25:35.321Z,55.29
2018-03-31T18:28:02.399Z,55.18
2018-03-31T18:30:29.233Z,54.93
2018-03-31T18:32:56.133Z,56.02
2018-03-31T18:35:23.027Z,56.54
2018-03-31T18:37:49.852Z,57.86
2018-03-31T18:40:17.352Z,58.28
2018-03-31T18:42:44.221Z,57.84
2018-03-31T18:45:11.064Z,57.85
2018-03-31T18:47:38.016Z,58.50
2018-03-31T18:50:04.857Z,57.68
2018-03-31T18:52:31.706Z,57.59
2018-03-31T18:54:59.285Z,58.48
2018-03-31T18:57:26.172Z,58.72
2018-03-31T18:59:53.020Z,56.63
2018-03-31T19:02:19.980Z,57.23
2018-03-31T19:04:46.813Z,57.94
2018-03-31T19:07:13.656Z,58.17
2018-03-31T19:09:40.500Z,59.59
2018-03-31T19:12:07.350Z,59.54
2018-03-31T19:14:34.317Z,59.34
2018-03-31T19:17:06.707Z,58.44
2018-03-31T19:19:33.580Z,58.24
2018-03-31T19:22:01.211Z,58.44
2018-03-31T19:24:28.063Z,58.43
2018-03-31T19:26:55.081Z,58.51
2018-03-31T19:29:22.312Z,59.15
2018-03-31T19:31:49.156Z,58.12
2018-03-31T19:34:16.128Z,57.15
2018-03-31T19:36:42.849Z,57.30
2018-03-31T19:39:09.683Z,62.51
2018-03-31T19:41:36.549Z,68.42
2018-03-31T19:44:03.407Z,71.61
2018-03-31T19:46:30.244Z,76.48
2018-03-31T19:48:57.098Z,76.00
2018-03-31T19:51:23.945Z,76.21
2018-03-31T19:53:50.815Z,78.42
2018-03-31T19:56:17.640Z,79.04
2018-03-31T19:58:44.481Z,80.59
2018-03-31T20:01:11.326Z,81.55
2018-03-31T20:03:38.174Z,81.87
2018-03-31T20:06:05.016Z,82.79
2018-03-31T20:08:31.857Z,84.70
2018-03-31T20:10:58.700Z,84.97
2018-03-31T20:13:25.552Z,87.25
2018-03-31T20:15:52.409Z,88.86
2018-03-31T20:18:19.260Z,90.53
2018-03-31T20:20:46.096Z,91.43
2018-03-31T20:23:12.936Z,92.37
2018-03-31T20:25:39.781Z,92.78
2018-03-31T20:28:06.629Z,93.81
2018-03-31T20:30:33.888Z,93.72
2018-03-31T20:33:00.724Z,94.62
2018-03-31T20:35:27.576Z,95.52
2018-03-31T20:37:54.412Z,96.15
2018-03-31T20:40:21.256Z,96.41
2018-03-31T20:42:48.203Z,95.92
2018-03-31T20:45:15.045Z,95.81
2018-03-31T20:47:41.888Z,95.88
2018-03-31T20:50:08.732Z,97.49
2018-03-31T20:52:35.572Z,97.03
2018-03-31T20:55:02.421Z,96.34
2018-03-31T20:57:29.264Z,97.17
2018-03-31T20:59:56.112Z,96.79
2018-03-31T21:02:22.954Z,95.92
2018-03-31T21:04:49.792Z,96.74
2018-03-31T21:07:16.644Z,96.30
2018-03-31T21:09:43.480Z,96.94
2018-03-31T21:12:10.320Z,97.40
2018-03-31T21:14:37.172Z,98.01
2018-03-31T21:17:04.012Z,98.39
2018-03-31T21:19:30.860Z,97.92
2018-03-31T21:21:57.698Z,98.01
2018-03-31T21:24:24.540Z,98.08
2018-03-31T21:26:51.385Z,98.02
2018-03-31T21:29:18.226Z,98.24
2018-03-31T21:31:45.074Z,98.18
2018-03-31T21:34:11.912Z,97.96
2018-03-31T21:36:38.758Z,97.56
2018-03-31T21:39:05.600Z,98.17
2018-03-31T21:41:32.448Z,98.36
2018-03-31T21:43:59.297Z,97.96
2018-03-31T21:46:26.155Z,97.29
2018-03-31T21:48:52.993Z,96.87
2018-03-31T21:51:19.832Z,96.72
2018-03-31T21:53:46.677Z,96.54
2018-03-31T21:56:13.513Z,96.58
2018-03-31T21:58:40.781Z,96.66
2018-03-31T22:01:07.623Z,96.81
2018-03-31T22:03:34.460Z,96.86
2018-03-31T22:06:01.318Z,96.77
2018-03-31T22:08:28.177Z,96.92
2018-03-31T22:10:55.028Z,96.93
2018-03-31T22:13:27.464Z,97.01
2018-03-31T22:15:54.301Z,97.65
2018-03-31T22:18:21.144Z,97.78
2018-03-31T22:20:48.002Z,97.25
2018-03-31T22:23:14.844Z,97.57
2018-03-31T22:25:41.701Z,97.69
2018-03-31T22:28:08.544Z,97.35
2018-03-31T22:30:35.388Z,97.30
2018-03-31T22:33:02.238Z,97.46
2018-03-31T22:35:29.081Z,97.84
2018-03-31T22:37:55.931Z,98.17
2018-03-31T22:40:22.768Z,98.08
2018-03-31T22:42:49.632Z,97.82
2018-03-31T22:45:16.474Z,98.01
2018-03-31T22:47:43.316Z,97.57
2018-03-31T22:50:10.156Z,97.49
2018-03-31T22:52:37.012Z,97.61
2018-03-31T22:55:03.866Z,97.61
2018-03-31T22:57:30.703Z,97.78
2018-03-31T22:59:57.569Z,97.61
2018-03-31T23:02:24.407Z,97.64
2018-03-31T23:04:51.252Z,97.24
2018-03-31T23:07:18.101Z,97.13
2018-03-31T23:09:44.929Z,97.18
2018-03-31T23:12:11.780Z,97.06
2018-03-31T23:14:38.637Z,97.24
2018-03-31T23:17:05.484Z,97.23
2018-03-31T23:19:32.348Z,97.41
2018-03-31T23:21:59.189Z,97.40
2018-03-31T23:24:26.027Z,97.09
2018-03-31T23:26:52.885Z,96.84
2018-03-31T23:29:19.992Z,97.11
2018-03-31T23:31:46.829Z,97.31
2018-03-31T23:34:13.665Z,97.24
2018-03-31T23:36:40.517Z,96.89
2018-03-31T23:39:07.360Z,97.10
2018-03-31T23:41:34.200Z,96.94
2018-03-31T23:44:01.040Z,96.89
2018-03-31T23:46:27.883Z,96.74
2018-03-31T23:48:54.721Z,96.97
2018-03-31T23:51:21.556Z,97.15
2018-03-31T23:53:48.418Z,97.38
2018-03-31T23:56:15.259Z,97.54
2018-03-31T23:58:42.092Z,97.18
